createdAt,value
2019-04-23T00:01:46.151Z,19.40
2019-04-23T00:04:13.197Z,19.40
2019-04-23T00:06:57.664Z,19.40
2019-04-23T00:09:18.939Z,19.30
2019-04-23T00:11:48.271Z,19.30
2019-04-23T00:14:27.244Z,19.30
2019-04-23T00:16:51.194Z,19.20
2019-04-23T00:19:24.662Z,19.20
2019-04-23T00:22:05.536Z,19.20
2019-04-23T00:27:45.805Z,19.10
2019-04-23T00:30:18.711Z,19.00
2019-04-23T00:32:37.952Z,19.00
2019-04-23T00:35:12.555Z,18.90
2019-04-23T00:37:41.784Z,18.90
2019-04-23T00:40:25.934Z,18.90
2019-04-23T00:43:00.669Z,18.70
2019-04-23T00:45:33.047Z,18.70
2019-04-23T00:47:54.736Z,18.70
2019-04-23T00:50:41.290Z,18.60
2019-04-23T00:53:05.863Z,18.60
2019-04-23T00:55:35.657Z,18.50
2019-04-23T00:58:18.947Z,18.50
2019-04-23T01:00:45.949Z,18.40
2019-04-23T01:03:16.929Z,18.40
2019-04-23T01:05:50.374Z,18.40
2019-04-23T01:11:16.423Z,18.40
2019-04-23T01:16:18.163Z,18.30
2019-04-23T01:21:26.441Z,18.20
2019-04-23T01:24:15.849Z,18.20
2019-04-23T01:27:41.132Z,18.20
2019-04-23T01:29:58.554Z,18.20
2019-04-23T01:32:25.724Z,18.10
2019-04-23T01:35:09.683Z,18.00
2019-04-23T01:37:30.092Z,18.00
2019-04-23T01:40:04.032Z,18.00
2019-04-23T01:42:40.614Z,17.90
2019-04-23T01:45:15.034Z,17.90
2019-04-23T01:47:46.046Z,17.80
2019-04-23T01:50:23.804Z,17.80
2019-04-23T01:52:55.026Z,17.80
2019-04-23T01:55:24.466Z,17.90
2019-04-23T01:57:56.378Z,17.80
2019-04-23T02:00:22.035Z,17.80
2019-04-23T02:02:57.575Z,17.80
2019-04-23T02:05:27.316Z,17.70
2019-04-23T02:10:41.534Z,17.70
2019-04-23T02:13:12.632Z,17.60
2019-04-23T02:15:37.967Z,17.60
2019-04-23T02:18:13.282Z,17.50
2019-04-23T02:20:43.201Z,17.50
2019-04-23T02:25:50.168Z,17.40
2019-04-23T02:28:34.102Z,17.40
2019-04-23T02:35:58.749Z,17.40
2019-04-23T02:38:50.173Z,17.30
2019-04-23T02:46:17.480Z,17.20
2019-04-23T02:51:27.539Z,17.10
2019-04-23T02:54:04.661Z,17.10
2019-04-23T02:56:37.962Z,17.00
2019-04-23T03:06:47.741Z,16.90
2019-04-23T03:09:23.741Z,16.90
2019-04-23T03:11:58.504Z,16.80
2019-04-23T03:14:45.449Z,16.80
2019-04-23T03:17:10.523Z,16.90
2019-04-23T03:23:03.047Z,16.70
2019-04-23T03:25:35.633Z,16.70
2019-04-23T03:28:23.042Z,16.60
2019-04-23T03:32:01.758Z,16.70
2019-04-23T03:38:41.743Z,16.50
2019-04-23T03:41:15.132Z,16.50
2019-04-23T03:48:32.419Z,16.40
2019-04-23T03:50:53.222Z,16.50
2019-04-23T03:53:44.814Z,16.50
2019-04-23T03:56:10.949Z,16.50
2019-04-23T04:01:12.349Z,16.40
2019-04-23T04:08:50.797Z,16.30
2019-04-23T04:11:21.580Z,16.30
2019-04-23T04:14:01.528Z,16.20
2019-04-23T04:16:18.209Z,16.10
2019-04-23T04:19:22.719Z,16.10
2019-04-23T04:29:11.694Z,16.00
2019-04-23T04:32:00.297Z,16.00
2019-04-23T04:34:52.456Z,16.00
2019-04-23T04:39:26.480Z,15.90
2019-04-23T04:42:10.158Z,15.90
2019-04-23T04:44:47.774Z,15.90
2019-04-23T04:47:21.543Z,15.90
2019-04-23T04:52:48.811Z,15.90
2019-04-23T04:54:55.839Z,15.90
2019-04-23T04:57:35.963Z,15.90
2019-04-23T05:00:30.105Z,15.80
2019-04-23T05:02:57.384Z,15.80
2019-04-23T05:07:47.785Z,15.80
2019-04-23T05:15:08.947Z,15.80
2019-04-23T05:17:59.982Z,15.90
2019-04-23T05:20:28.515Z,15.90
2019-04-23T05:25:27.374Z,15.90
2019-04-23T05:28:02.803Z,15.90
2019-04-23T05:30:33.156Z,15.90
2019-04-23T05:32:58.021Z,16.00
2019-04-23T05:35:46.578Z,16.10
2019-04-23T05:38:14.841Z,16.10
2019-04-23T05:40:37.911Z,16.20
2019-04-23T05:42:58.849Z,16.20
2019-04-23T05:48:06.865Z,16.30
2019-04-23T05:50:40.850Z,16.30
2019-04-23T05:53:11.535Z,16.30
2019-04-23T05:55:45.996Z,16.30
2019-04-23T05:58:08.610Z,16.30
2019-04-23T06:00:52.047Z,16.20
2019-04-23T06:03:11.970Z,16.20
2019-04-23T06:05:52.548Z,16.20
2019-04-23T06:08:21.682Z,16.40
2019-04-23T06:10:49.631Z,16.40
2019-04-23T06:13:19.204Z,16.50
2019-04-23T06:15:44.006Z,16.60
2019-04-23T06:18:24.770Z,16.60
2019-04-23T06:23:30.236Z,16.60
2019-04-23T06:28:24.129Z,16.50
2019-04-23T06:30:54.389Z,16.50
2019-04-23T06:33:30.994Z,16.40
2019-04-23T06:35:59.087Z,16.50
2019-04-23T06:40:55.403Z,16.40
2019-04-23T06:43:49.975Z,16.40
2019-04-23T06:46:19.997Z,16.50
2019-04-23T06:48:47.594Z,16.60
2019-04-23T06:51:29.215Z,16.60
2019-04-23T06:53:49.845Z,16.80
2019-04-23T06:56:26.448Z,16.70
2019-04-23T06:59:00.850Z,16.70
2019-04-23T07:01:33.414Z,16.70
2019-04-23T07:03:57.149Z,16.70
2019-04-23T07:06:30.140Z,16.70
2019-04-23T07:09:09.625Z,16.80
2019-04-23T07:16:49.914Z,16.90
2019-04-23T07:21:35.576Z,17.10
2019-04-23T07:24:11.289Z,17.20
2019-04-23T07:31:40.970Z,17.40
2019-04-23T07:34:18.051Z,17.50
2019-04-23T07:39:25.062Z,17.70
2019-04-23T07:45:04.959Z,17.80
2019-04-23T07:48:10.812Z,17.90
2019-04-23T07:55:49.621Z,17.90
2019-04-23T07:58:29.265Z,17.90
2019-04-23T08:05:39.518Z,18.10
2019-04-23T08:08:11.666Z,18.30
2019-04-23T08:11:14.372Z,18.40
2019-04-23T08:13:37.521Z,18.50
2019-04-23T08:15:55.778Z,18.50
2019-04-23T08:18:32.627Z,18.60
2019-04-23T08:20:55.620Z,18.80
2019-04-23T08:23:50.673Z,18.70
2019-04-23T08:26:42.487Z,18.80
2019-04-23T08:29:26.887Z,18.80
2019-04-23T08:31:43.688Z,18.80
2019-04-23T08:34:25.687Z,19.00
2019-04-23T08:36:49.674Z,18.90
2019-04-23T08:39:12.075Z,19.10
2019-04-23T08:41:59.569Z,19.10
2019-04-23T08:44:36.479Z,19.30
2019-04-23T08:47:13.371Z,19.30
2019-04-23T08:49:43.535Z,19.20
2019-04-23T08:52:14.835Z,19.20
2019-04-23T08:54:47.849Z,19.30
2019-04-23T08:59:44.056Z,19.50
2019-04-23T09:02:22.076Z,19.40
2019-04-23T09:04:49.461Z,19.60
2019-04-23T09:07:26.092Z,19.60
2019-04-23T09:09:50.883Z,19.70
2019-04-23T09:14:56.528Z,20.10
2019-04-23T09:17:24.796Z,20.20
2019-04-23T09:20:07.126Z,20.20
2019-04-23T09:22:33.815Z,20.20
2019-04-23T09:24:57.489Z,20.20
2019-04-23T09:27:26.173Z,20.30
2019-04-23T09:38:17.765Z,20.40
2019-04-23T09:43:31.244Z,20.60
2019-04-23T09:46:17.932Z,20.60
2019-04-23T09:48:54.638Z,20.70
2019-04-23T09:51:17.265Z,20.70
2019-04-23T09:54:01.108Z,20.60
2019-04-23T09:56:23.554Z,20.70
2019-04-23T09:58:51.733Z,20.70
2019-04-23T10:01:40.988Z,20.90
2019-04-23T10:03:45.125Z,21.20
2019-04-23T10:06:11.835Z,21.30
2019-04-23T10:08:40.249Z,21.20
2019-04-23T10:11:11.728Z,21.30
2019-04-23T10:13:42.814Z,21.50
2019-04-23T10:16:15.653Z,21.60
2019-04-23T10:18:43.043Z,21.60
2019-04-23T10:21:13.137Z,21.70
2019-04-23T10:23:43.268Z,21.70
2019-04-23T10:26:14.133Z,21.80
2019-04-23T10:28:52.049Z,21.80
2019-04-23T10:31:22.930Z,21.80
2019-04-23T10:33:53.413Z,21.90
2019-04-23T10:36:27.159Z,21.90
2019-04-23T10:39:00.673Z,22.00
2019-04-23T10:41:25.741Z,21.90
2019-04-23T10:44:00.811Z,22.00
2019-04-23T10:47:02.777Z,22.00
2019-04-23T10:52:33.725Z,22.40
2019-04-23T10:55:02.642Z,22.60
2019-04-23T10:57:26.473Z,22.70
2019-04-23T10:59:55.962Z,22.90
2019-04-23T11:05:11.739Z,23.10
2019-04-23T11:17:52.341Z,23.20
2019-04-23T11:20:34.033Z,23.10
2019-04-23T11:23:17.039Z,23.20
2019-04-23T11:25:34.832Z,23.30
2019-04-23T11:28:06.910Z,23.20
2019-04-23T11:30:36.593Z,23.10
2019-04-23T11:33:18.602Z,23.10
2019-04-23T11:35:47.662Z,23.20
2019-04-23T11:38:34.925Z,23.20
2019-04-23T11:40:37.169Z,23.30
2019-04-23T11:51:18.511Z,23.30
2019-04-23T11:53:21.042Z,23.30
2019-04-23T11:55:57.416Z,23.30
2019-04-23T12:01:23.770Z,23.40
2019-04-23T12:03:58.705Z,23.40
2019-04-23T12:06:55.918Z,23.40
2019-04-23T12:12:00.095Z,23.40
2019-04-23T12:14:40.550Z,23.60
2019-04-23T12:22:19.978Z,24.00
2019-04-23T12:27:27.471Z,24.30
2019-04-23T12:29:50.109Z,24.40
2019-04-23T12:35:13.022Z,24.70
2019-04-23T12:38:04.170Z,24.80
2019-04-23T12:40:21.194Z,24.80
2019-04-23T12:45:33.321Z,25.10
2019-04-23T12:48:16.202Z,25.00
2019-04-23T12:50:48.793Z,25.10
2019-04-23T12:53:00.660Z,25.40
2019-04-23T12:55:36.349Z,25.50
2019-04-23T12:58:11.028Z,25.50
2019-04-23T13:00:48.475Z,25.60
2019-04-23T13:03:08.583Z,25.80
2019-04-23T13:05:34.447Z,25.80
2019-04-23T13:08:29.012Z,25.80
2019-04-23T13:13:23.879Z,26.00
2019-04-23T13:15:48.077Z,26.20
2019-04-23T13:18:17.585Z,26.50
2019-04-23T13:20:42.498Z,26.60
2019-04-23T13:23:24.931Z,26.80
2019-04-23T13:25:57.053Z,27.20
2019-04-23T13:28:35.259Z,27.20
2019-04-23T13:33:42.059Z,27.90
2019-04-23T13:36:11.310Z,28.30
2019-04-23T13:39:10.647Z,28.30
2019-04-23T13:41:20.125Z,28.40
2019-04-23T13:43:40.115Z,28.40
2019-04-23T13:48:40.148Z,28.20
2019-04-23T13:51:27.374Z,28.00
2019-04-23T13:53:50.322Z,27.80
2019-04-23T13:56:15.137Z,27.70
2019-04-23T14:03:47.975Z,27.70
2019-04-23T14:13:56.733Z,28.50
2019-04-23T14:18:59.123Z,28.70
2019-04-23T14:24:08.953Z,29.00
2019-04-23T14:26:32.227Z,29.20
2019-04-23T14:29:13.118Z,29.50
2019-04-23T14:31:28.360Z,29.50
2019-04-23T14:36:55.563Z,29.70
2019-04-23T14:49:19.190Z,30.00
2019-04-23T14:54:34.329Z,30.40
2019-04-23T14:56:59.043Z,30.50
2019-04-23T14:59:14.891Z,30.80
2019-04-23T15:01:54.904Z,30.80
2019-04-23T15:04:36.291Z,31.10
2019-04-23T15:09:33.899Z,31.10
2019-04-23T15:12:12.030Z,31.10
2019-04-23T15:14:45.753Z,31.20
2019-04-23T15:17:06.640Z,31.20
2019-04-23T15:22:16.913Z,31.30
2019-04-23T15:24:49.692Z,31.40
2019-04-23T15:27:59.988Z,31.60
2019-04-23T15:29:44.983Z,31.70
2019-04-23T15:32:31.075Z,31.80
2019-04-23T15:34:57.337Z,31.90
2019-04-23T15:40:11.209Z,31.90
2019-04-23T15:42:25.480Z,31.70
2019-04-23T15:44:55.725Z,31.70
2019-04-23T15:47:24.944Z,31.70
2019-04-23T15:49:59.571Z,31.60
2019-04-23T15:52:33.322Z,31.60
2019-04-23T15:57:49.935Z,32.00
2019-04-23T15:59:58.892Z,32.00
2019-04-23T16:02:02.776Z,31.90
2019-04-23T16:04:31.922Z,31.70
2019-04-23T16:07:02.441Z,31.50
2019-04-23T16:10:04.344Z,31.30
2019-04-23T16:12:31.583Z,31.00
2019-04-23T16:17:37.810Z,30.50
2019-04-23T16:22:39.745Z,30.20
2019-04-23T16:27:44.339Z,30.20
2019-04-23T16:33:10.458Z,30.40
2019-04-23T16:38:45.659Z,30.10
2019-04-23T16:41:09.250Z,29.80
2019-04-23T16:43:44.462Z,29.60
2019-04-23T16:46:13.130Z,29.20
2019-04-23T16:48:59.823Z,28.90
2019-04-23T16:51:27.971Z,28.50
2019-04-23T16:53:38.302Z,28.20
2019-04-23T16:56:23.775Z,28.10
2019-04-23T16:58:55.125Z,28.00
2019-04-23T17:01:24.912Z,27.90
2019-04-23T17:04:00.702Z,27.80
2019-04-23T17:09:34.117Z,27.40
2019-04-23T17:14:03.035Z,27.10
2019-04-23T17:16:32.040Z,26.90
2019-04-23T17:19:05.448Z,26.80
2019-04-23T17:21:28.759Z,26.70
2019-04-23T17:24:08.999Z,26.50
2019-04-23T17:26:29.563Z,26.40
2019-04-23T17:29:05.793Z,26.20
2019-04-23T17:34:17.486Z,25.90
2019-04-23T17:36:44.347Z,25.80
2019-04-23T17:39:25.376Z,25.70
2019-04-23T17:47:37.631Z,25.30
2019-04-23T17:55:22.392Z,25.00
2019-04-23T18:02:55.284Z,24.70
2019-04-23T18:05:13.142Z,24.60
2019-04-23T18:10:25.342Z,24.40
2019-04-23T18:12:51.431Z,24.40
2019-04-23T18:15:15.689Z,24.40
2019-04-23T18:20:38.455Z,24.20
2019-04-23T18:28:12.018Z,24.10
2019-04-23T18:31:05.922Z,24.10
2019-04-23T18:36:08.118Z,23.90
2019-04-23T18:38:50.126Z,23.70
2019-04-23T18:43:48.300Z,23.60
2019-04-23T18:48:51.712Z,23.40
2019-04-23T18:51:12.463Z,23.40
2019-04-23T18:56:49.336Z,23.20
2019-04-23T19:01:27.985Z,23.20
2019-04-23T19:04:33.219Z,23.00
2019-04-23T19:06:58.242Z,23.00
2019-04-23T19:13:03.435Z,22.90
2019-04-23T19:17:50.491Z,22.70
2019-04-23T19:20:47.298Z,22.70
2019-04-23T19:23:19.052Z,22.60
2019-04-23T19:25:28.129Z,22.50
2019-04-23T19:28:08.877Z,22.50
2019-04-23T19:30:46.166Z,22.40
2019-04-23T19:33:21.835Z,22.40
2019-04-23T19:40:51.773Z,22.30
2019-04-23T19:43:19.447Z,22.30
2019-04-23T19:45:56.724Z,22.30
2019-04-23T19:56:05.681Z,22.10
2019-04-23T19:58:34.731Z,22.10
2019-04-23T20:03:39.542Z,22.10
2019-04-23T20:06:08.158Z,22.00
2019-04-23T20:08:49.381Z,22.00
2019-04-23T20:10:54.387Z,22.00
2019-04-23T20:13:37.843Z,22.00
2019-04-23T20:18:42.846Z,21.90
2019-04-23T20:20:59.472Z,21.90
2019-04-23T20:29:11.952Z,21.80
2019-04-23T20:34:22.639Z,21.80
2019-04-23T20:36:46.121Z,21.70
2019-04-23T20:39:16.700Z,21.70
2019-04-23T20:44:37.265Z,21.60
2019-04-23T20:47:11.422Z,21.60
2019-04-23T20:49:38.984Z,21.50
2019-04-23T20:54:42.116Z,21.40
2019-04-23T20:57:35.662Z,21.50
2019-04-23T21:00:01.534Z,21.50
2019-04-23T21:03:00.364Z,21.40
2019-04-23T21:07:54.505Z,21.30
2019-04-23T21:12:58.175Z,21.30
2019-04-23T21:15:18.374Z,21.30
2019-04-23T21:20:28.358Z,21.20
2019-04-23T21:22:59.097Z,21.20
2019-04-23T21:25:22.367Z,21.20
2019-04-23T21:33:15.895Z,21.10
2019-04-23T21:38:55.862Z,21.10
2019-04-23T21:41:39.441Z,21.00
2019-04-23T21:44:10.320Z,21.00
2019-04-23T21:56:39.601Z,20.80
2019-04-23T22:06:43.401Z,20.80
2019-04-23T22:09:15.987Z,20.80
2019-04-23T22:14:09.910Z,20.70
2019-04-23T22:19:17.122Z,20.70
2019-04-23T22:21:47.491Z,20.70
2019-04-23T22:31:47.125Z,20.60
2019-04-23T22:36:54.900Z,20.50
2019-04-23T22:39:16.313Z,20.50
2019-04-23T22:42:08.745Z,20.50
2019-04-23T22:44:20.615Z,20.50
2019-04-23T22:46:56.229Z,20.50
2019-04-23T22:49:33.501Z,20.40
2019-04-23T22:52:02.636Z,20.40
2019-04-23T22:54:25.856Z,20.40
2019-04-23T22:59:35.731Z,20.30
2019-04-23T23:02:27.101Z,20.30
2019-04-23T23:05:07.270Z,20.30
2019-04-23T23:07:28.855Z,20.30
2019-04-23T23:12:46.693Z,20.20
2019-04-23T23:15:19.030Z,20.20
2019-04-23T23:17:48.390Z,20.20
2019-04-23T23:20:13.920Z,20.20
2019-04-23T23:22:49.028Z,20.10
2019-04-23T23:25:12.942Z,20.20
2019-04-23T23:27:40.048Z,20.10
2019-04-23T23:32:41.138Z,20.10
2019-04-23T23:37:39.263Z,20.00
2019-04-23T23:42:43.198Z,20.00
2019-04-23T23:45:19.672Z,19.90
2019-04-23T23:47:43.146Z,19.90
2019-04-23T23:50:22.729Z,19.90
2019-04-23T23:53:04.284Z,19.80
2019-04-23T23:55:16.404Z,19.80
2019-04-23T23:57:53.057Z,19.80
